Time;durP1;ratioP1;P1;durP2;ratioP2;P2;SDS_P1;SDS_P2;PMS_P1;PMS_P2;Temp;Humidity;BMP_temperature;BMP_pressure;BME280_temperature;BME280_humidity;BME280_pressure;Samples;Min_cycle;Max_cycle;Signal;HPM_P1;HPM_P2
2023/05/22 00:01:25;;;;;;;;;;;;;;;22.08;51.05;101505.91;5051259;28;19917;-72
2023/05/22 00:03:50;;;;;;;;;;;;;;;22.07;51.11;101509.63;5037262;28;19984;-72
2023/05/22 00:06:17;;;;;;;;;;;;;;;22.07;51.19;101506.94;5034360;28;19913;-72
2023/05/22 00:08:42;;;;;;;;;;;;;;;22.06;50.95;101508.78;5030992;28;19940;-72
2023/05/22 00:11:07;;;;;;;;;;;;;;;22.06;51.08;101508.78;5035077;28;19936;-72
2023/05/22 00:13:32;;;;;;;;;;;;;;;22.05;50.88;101509.81;5054083;28;19923;-72
2023/05/22 00:15:58;;;;;;;;;;;;;;;22.06;50.81;101499.81;5051163;28;19951;-71
2023/05/22 00:18:24;;;;;;;;;;;;;;;22.04;50.66;101494.56;5054337;28;19940;-71
2023/05/22 00:20:50;;;;;;;;;;;;;;;22.05;50.68;101492.72;5044739;28;19913;-72
2023/05/22 00:23:16;;;;;;;;;;;;;;;22.04;50.88;101491.84;5058077;28;19932;-72
2023/05/22 00:25:41;;;;;;;;;;;;;;;22.05;51.00;101490.03;5042569;28;19921;-72
2023/05/22 00:28:06;;;;;;;;;;;;;;;22.04;50.68;101493.72;5033210;28;19913;-72
2023/05/22 00:30:32;;;;;;;;;;;;;;;22.04;50.76;101485.59;5035446;28;20019;-72
2023/05/22 00:32:57;;;;;;;;;;;;;;;22.04;50.96;101478.31;5053386;28;19956;-72
2023/05/22 00:35:22;;;;;;;;;;;;;;;22.03;50.79;101478.50;5031967;28;19913;-72
2023/05/22 00:37:47;;;;;;;;;;;;;;;22.02;50.85;101472.25;5051019;28;19916;-71
2023/05/22 00:40:14;;;;;;;;;;;;;;;22.03;50.83;101467.69;5053770;28;19913;-72
2023/05/22 00:42:40;;;;;;;;;;;;;;;22.02;50.77;101461.41;5048934;28;19951;-71
2023/05/22 00:45:06;;;;;;;;;;;;;;;22.01;50.73;101454.31;5055282;28;19917;-71
2023/05/22 00:47:31;;;;;;;;;;;;;;;22.01;50.79;101459.75;5043104;28;19921;-71
2023/05/22 00:49:56;;;;;;;;;;;;;;;22.01;50.76;101443.50;5053994;28;19916;-72
2023/05/22 00:52:22;;;;;;;;;;;;;;;22.01;51.08;101443.50;5059226;28;19916;-71
2023/05/22 00:54:47;;;;;;;;;;;;;;;22.00;50.75;101447.19;5033008;28;19940;-71
2023/05/22 00:57:12;;;;;;;;;;;;;;;22.01;50.97;101450.78;5052278;28;19941;-71
2023/05/22 00:59:37;;;;;;;;;;;;;;;22.00;50.59;101449.91;5038659;28;19920;-71
2023/05/22 01:02:02;;;;;;;;;;;;;;;22.00;50.66;101449.06;5050538;28;19917;-71
2023/05/22 01:04:31;;;;;;;;;;;;;;;21.99;50.81;101450.94;5034405;28;19956;-71
2023/05/22 01:06:56;;;;;;;;;;;;;;;21.98;50.76;101451.97;5051388;28;19924;-71
2023/05/22 01:09:21;;;;;;;;;;;;;;;21.99;50.86;101448.22;5048237;28;19913;-71
2023/05/22 01:11:58;;;;;;;;;;;;;;;21.98;50.56;101443.00;5052721;28;19962;-72
2023/05/22 01:14:33;;;;;;;;;;;;;;;21.98;50.97;101440.28;5043863;28;19913;-71
2023/05/22 01:17:07;;;;;;;;;;;;;;;21.96;50.86;101433.19;5034004;28;20008;-71
2023/05/22 01:19:33;;;;;;;;;;;;;;;;;;5047251;28;19913;-71
2023/05/22 01:22:06;;;;;;;;;;;;;;;21.96;50.76;101425.06;5049292;28;19939;-71
2023/05/22 01:24:50;;;;;;;;;;;;;;;21.95;50.82;101428.78;5057044;28;19921;-72
2023/05/22 01:27:16;;;;;;;;;;;;;;;21.96;50.65;101418.78;5050846;28;19927;-71
2023/05/22 01:29:53;;;;;;;;;;;;;;;21.95;50.92;101423.34;5049790;28;19992;-72
2023/05/22 01:32:22;;;;;;;;;;;;;;;21.95;50.77;101417.09;5044560;28;19963;-71
2023/05/22 01:34:49;;;;;;;;;;;;;;;21.94;50.62;101424.38;5033615;28;19917;-71
2023/05/22 01:37:15;;;;;;;;;;;;;;;21.94;50.81;101421.69;5049032;28;19952;-71
2023/05/22 01:39:40;;;;;;;;;;;;;;;21.95;50.74;101422.53;5036368;28;19966;-71
2023/05/22 01:42:05;;;;;;;;;;;;;;;21.94;50.49;101418.13;5043984;28;19993;-71
2023/05/22 01:44:31;;;;;;;;;;;;;;;21.93;50.49;101420.00;5051971;28;19952;-71
2023/05/22 01:46:59;;;;;;;;;;;;;;;21.93;50.78;101428.13;5044915;28;19963;-71
2023/05/22 01:49:25;;;;;;;;;;;;;;;21.93;50.62;101419.16;5043264;28;19920;-71
2023/05/22 01:51:52;;;;;;;;;;;;;;;21.92;50.64;101415.63;5057954;28;19913;-71
2023/05/22 01:54:34;;;;;;;;;;;;;;;21.93;50.79;101413.75;5039315;28;19917;-71
2023/05/22 01:57:02;;;;;;;;;;;;;;;21.92;50.69;101406.66;5056374;28;19913;-71
2023/05/22 01:59:30;;;;;;;;;;;;;;;21.92;50.84;101403.94;5034163;28;19955;-71
2023/05/22 02:01:56;;;;;;;;;;;;;;;21.91;50.85;101391.41;5044499;28;19921;-71
2023/05/22 02:04:21;;;;;;;;;;;;;;;21.91;50.51;101392.25;5049475;28;20451;-71
2023/05/22 02:06:46;;;;;;;;;;;;;;;21.91;50.68;101386.00;5032582;28;19976;-71
2023/05/22 02:09:12;;;;;;;;;;;;;;;21.91;50.68;101388.69;5050907;28;20385;-72
2023/05/22 02:11:37;;;;;;;;;;;;;;;21.90;50.90;101381.59;5034279;28;19935;-72
2023/05/22 02:14:02;;;;;;;;;;;;;;;21.90;50.72;101385.16;5038575;28;19974;-72
2023/05/22 02:16:29;;;;;;;;;;;;;;;21.90;50.60;101389.72;5042993;28;19927;-72
2023/05/22 02:19:06;;;;;;;;;;;;;;;21.90;50.83;101389.72;5044693;28;19913;-72
2023/05/22 02:21:34;;;;;;;;;;;;;;;21.89;50.86;101399.72;5037915;28;19976;-72
2023/05/22 02:24:00;;;;;;;;;;;;;;;21.89;50.47;101388.88;5049139;28;19917;-72
2023/05/22 02:26:25;;;;;;;;;;;;;;;21.88;50.73;101395.31;5037278;28;19913;-72
2023/05/22 02:28:50;;;;;;;;;;;;;;;21.89;50.73;101396.16;5050038;28;19981;-71
2023/05/22 02:31:17;;;;;;;;;;;;;;;21.89;50.74;101396.16;5047570;28;19913;-72
2023/05/22 02:33:42;;;;;;;;;;;;;;;21.88;50.54;101387.19;5050540;28;19920;-72
2023/05/22 02:36:09;;;;;;;;;;;;;;;21.87;50.58;101381.94;5050582;28;19981;-72
2023/05/22 02:38:35;;;;;;;;;;;;;;;21.88;50.92;101380.94;5022092;28;19916;-71
2023/05/22 02:41:00;;;;;;;;;;;;;;;21.87;50.49;101382.78;5039897;28;20281;-71
2023/05/22 02:43:25;;;;;;;;;;;;;;;21.87;50.56;101395.47;5049799;28;19917;-72
2023/05/22 02:45:51;;;;;;;;;;;;;;;21.86;50.79;101397.34;5044435;28;19923;-72
2023/05/22 02:48:16;;;;;;;;;;;;;;;21.86;50.82;101400.06;5041877;28;20372;-72
2023/05/22 02:50:43;;;;;;;;;;;;;;;21.85;50.63;101398.38;5050393;28;20394;-71
2023/05/22 02:53:08;;;;;;;;;;;;;;;21.86;50.83;101385.69;5054780;28;19980;-71
2023/05/22 02:55:33;;;;;;;;;;;;;;;21.86;50.71;101385.69;5031792;28;19920;-72
2023/05/22 02:57:59;;;;;;;;;;;;;;;21.85;50.81;101392.13;5028720;28;19913;-72
2023/05/22 03:00:24;;;;;;;;;;;;;;;21.84;50.74;101383.16;5034624;28;19980;-72
2023/05/22 03:02:49;;;;;;;;;;;;;;;21.85;50.54;101392.13;5051369;28;19928;-72
2023/05/22 03:05:16;;;;;;;;;;;;;;;21.84;50.78;101391.28;5048724;28;19935;-72
2023/05/22 03:07:41;;;;;;;;;;;;;;;21.84;50.88;101388.56;5051991;28;19941;-72
2023/05/22 03:10:07;;;;;;;;;;;;;;;21.84;50.50;101382.31;5050123;28;19920;-72
2023/05/22 03:12:32;;;;;;;;;;;;;;;21.82;50.71;101385.19;5042089;28;19917;-72
2023/05/22 03:14:57;;;;;;;;;;;;;;;21.82;50.86;101390.59;5037176;28;20293;-72
2023/05/22 03:17:22;;;;;;;;;;;;;;;21.82;50.59;101387.91;5042516;28;19912;-72
2023/05/22 03:19:47;;;;;;;;;;;;;;;21.82;50.89;101390.59;5049656;28;19917;-72
2023/05/22 03:22:12;;;;;;;;;;;;;;;21.82;50.77;101392.47;5037141;28;19921;-72
2023/05/22 03:24:38;;;;;;;;;;;;;;;21.82;50.85;101389.75;5047551;28;19928;-72
2023/05/22 03:27:03;;;;;;;;;;;;;;;21.81;50.71;101388.06;5053644;28;19913;-72
2023/05/22 03:29:28;;;;;;;;;;;;;;;21.81;50.64;101385.38;5053934;28;20011;-72
2023/05/22 03:31:53;;;;;;;;;;;;;;;21.80;50.65;101376.41;5051788;28;19940;-72
2023/05/22 03:34:18;;;;;;;;;;;;;;;21.80;50.76;101381.81;5024257;28;19939;-72
2023/05/22 03:36:44;;;;;;;;;;;;;;;21.80;50.79;101375.56;5055352;28;19913;-72
2023/05/22 03:39:10;;;;;;;;;;;;;;;21.79;50.86;101380.16;5052534;28;19921;-72
2023/05/22 03:41:35;;;;;;;;;;;;;;;21.80;50.71;101375.56;5060400;28;19921;-72
2023/05/22 03:44:01;;;;;;;;;;;;;;;21.78;50.81;101373.03;5029493;28;19928;-72
2023/05/22 03:46:27;;;;;;;;;;;;;;;21.79;50.85;101371.16;5055571;28;19913;-72
2023/05/22 03:48:52;;;;;;;;;;;;;;;21.79;50.68;101368.44;5054068;28;19987;-72
2023/05/22 03:51:17;;;;;;;;;;;;;;;21.79;50.62;101379.28;5037020;28;19936;-72
2023/05/22 03:53:42;;;;;;;;;;;;;;;21.78;50.74;101373.03;5053790;28;19949;-72
2023/05/22 03:56:07;;;;;;;;;;;;;;;21.78;50.88;101369.47;5053410;28;19963;-72
2023/05/22 03:58:33;;;;;;;;;;;;;;;21.78;50.60;101372.19;5050734;28;19978;-72
2023/05/22 04:00:59;;;;;;;;;;;;;;;21.77;50.89;101367.78;5051107;28;19928;-73
2023/05/22 04:03:25;;;;;;;;;;;;;;;21.77;50.46;101368.63;5038659;28;20028;-72
2023/05/22 04:05:50;;;;;;;;;;;;;;;21.76;50.51;101369.66;5056195;28;19927;-72
2023/05/22 04:08:15;;;;;;;;;;;;;;;21.76;50.74;101380.50;5056001;28;20002;-73
2023/05/22 04:10:41;;;;;;;;;;;;;;;21.76;50.74;101390.47;5054255;28;19985;-72
2023/05/22 04:13:06;;;;;;;;;;;;;;;21.76;50.45;101388.63;5036103;28;20408;-72
2023/05/22 04:15:33;;;;;;;;;;;;;;;21.76;50.85;101393.19;5045410;28;20429;-72
2023/05/22 04:18:01;;;;;;;;;;;;;;;21.76;50.71;101390.47;5051696;28;19921;-72
2023/05/22 04:20:26;;;;;;;;;;;;;;;21.75;50.50;101399.59;5052150;28;19948;-72
2023/05/22 04:22:53;;;;;;;;;;;;;;;21.75;50.56;101395.06;5051703;28;19921;-73
2023/05/22 04:25:18;;;;;;;;;;;;;;;21.75;50.50;101396.88;5034023;28;19917;-72
2023/05/22 04:27:43;;;;;;;;;;;;;;;21.75;50.40;101394.19;5021580;28;19924;-72
2023/05/22 04:30:09;;;;;;;;;;;;;;;21.75;50.64;101396.88;5053841;28;19913;-72
2023/05/22 04:32:35;;;;;;;;;;;;;;;21.73;50.52;101388.13;5034263;28;19917;-72
2023/05/22 04:35:00;;;;;;;;;;;;;;;21.74;50.56;101389.78;5037611;28;19920;-72
2023/05/22 04:37:27;;;;;;;;;;;;;;;21.74;50.32;101392.50;5045306;28;19912;-72
2023/05/22 04:39:56;;;;;;;;;;;;;;;21.73;50.47;101388.13;5046868;28;19928;-74
2023/05/22 04:42:21;;;;;;;;;;;;;;;21.73;50.37;101382.69;5024640;28;19947;-72
2023/05/22 04:44:47;;;;;;;;;;;;;;;21.73;50.51;101385.41;5053094;28;19913;-72
2023/05/22 04:47:13;;;;;;;;;;;;;;;21.73;50.43;101380.00;5055584;28;19921;-73
2023/05/22 04:49:39;;;;;;;;;;;;;;;21.71;50.32;101383.72;5041388;28;20066;-71
2023/05/22 04:52:07;;;;;;;;;;;;;;;21.72;50.63;101381.88;5044079;28;19920;-72
2023/05/22 04:54:33;;;;;;;;;;;;;;;21.72;50.73;101384.56;5054938;28;19927;-72
2023/05/22 04:56:58;;;;;;;;;;;;;;;21.72;50.71;101389.97;5031436;28;19913;-73
2023/05/22 04:59:25;;;;;;;;;;;;;;;21.71;50.59;101391.84;5035528;28;20045;-72
2023/05/22 05:01:50;;;;;;;;;;;;;;;21.72;50.52;101389.97;5046037;28;19916;-73
2023/05/22 05:04:19;;;;;;;;;;;;;;;21.71;50.65;101391.84;5057059;28;19975;-73
2023/05/22 05:06:44;;;;;;;;;;;;;;;21.71;50.52;101391.84;5037882;28;19921;-72
2023/05/22 05:09:09;;;;;;;;;;;;;;;21.71;50.90;101391.84;5054772;28;19917;-73
2023/05/22 05:11:35;;;;;;;;;;;;;;;21.71;50.71;101391.84;5037623;28;19913;-74
2023/05/22 05:14:00;;;;;;;;;;;;;;;21.71;50.60;101391.84;5050739;28;19920;-72
2023/05/22 05:16:25;;;;;;;;;;;;;;;21.71;50.82;101393.72;5052298;28;19932;-71
2023/05/22 05:18:50;;;;;;;;;;;;;;;21.71;51.03;101391.84;5058163;28;19928;-72
2023/05/22 05:21:16;;;;;;;;;;;;;;;21.71;51.10;101389.13;5044004;28;20382;-70
2023/05/22 05:23:41;;;;;;;;;;;;;;;21.71;51.09;101393.72;5052607;28;19920;-71
2023/05/22 05:26:06;;;;;;;;;;;;;;;21.73;51.04;101393.53;5022701;28;19917;-73
2023/05/22 05:28:31;;;;;;;;;;;;;;;21.72;51.15;101398.09;5051529;28;20008;-73
2023/05/22 05:30:56;;;;;;;;;;;;;;;21.71;51.21;101402.66;5056734;28;19917;-73
2023/05/22 05:33:22;;;;;;;;;;;;;;;21.71;51.32;101405.38;5050439;28;19924;-73
2023/05/22 05:35:49;;;;;;;;;;;;;;;21.73;51.46;101407.06;5057678;28;19912;-71
2023/05/22 05:38:15;;;;;;;;;;;;;;;21.73;51.27;101401.66;5051386;28;19917;-71
2023/05/22 05:40:42;;;;;;;;;;;;;;;21.72;51.24;101400.81;5035018;28;19944;-71
2023/05/22 05:43:07;;;;;;;;;;;;;;;21.72;51.16;101406.22;5053617;28;20019;-72
2023/05/22 05:45:33;;;;;;;;;;;;;;;21.72;51.11;101406.22;5049883;28;20290;-72
2023/05/22 05:47:58;;;;;;;;;;;;;;;21.73;51.41;101409.75;5034764;28;19917;-71
2023/05/22 05:50:23;;;;;;;;;;;;;;;21.71;51.49;101408.09;5054718;28;19939;-72
2023/05/22 05:52:48;;;;;;;;;;;;;;;21.71;51.33;101408.09;5053627;28;19924;-73
2023/05/22 05:55:13;;;;;;;;;;;;;;;21.71;51.47;101413.50;5046038;28;19968;-72
2023/05/22 05:57:39;;;;;;;;;;;;;;;21.72;51.53;101414.34;5041872;28;19916;-72
2023/05/22 06:00:07;;;;;;;;;;;;;;;21.73;51.60;101409.75;5051802;28;20023;-70
2023/05/22 06:02:33;;;;;;;;;;;;;;;21.73;51.25;101413.31;5054567;28;20023;-71
2023/05/22 06:04:58;;;;;;;;;;;;;;;21.72;51.32;101408.94;5052963;28;19913;-72
2023/05/22 06:07:23;;;;;;;;;;;;;;;21.73;51.58;101412.47;5056621;28;19916;-72
2023/05/22 06:09:48;;;;;;;;;;;;;;;21.72;51.62;101411.63;5054055;28;19967;-72
2023/05/22 06:12:14;;;;;;;;;;;;;;;21.73;51.60;101413.31;5047743;28;19917;-73
2023/05/22 06:14:39;;;;;;;;;;;;;;;21.73;51.56;101421.44;5049466;28;20353;-80
2023/05/22 06:17:05;;;;;;;;;;;;;;;21.73;51.66;101412.47;5043047;28;20008;-77
2023/05/22 06:19:30;;;;;;;;;;;;;;;21.74;51.77;101416.84;5049595;28;19972;-76
2023/05/22 06:21:55;;;;;;;;;;;;;;;21.73;51.69;101413.31;5054365;28;20433;-76
2023/05/22 06:24:20;;;;;;;;;;;;;;;21.73;51.85;101418.72;5043475;28;20574;-75
2023/05/22 06:26:45;;;;;;;;;;;;;;;21.73;51.47;101416.03;5057950;28;19944;-75
2023/05/22 06:29:11;;;;;;;;;;;;;;;21.73;51.57;101424.13;5050549;28;19923;-75
2023/05/22 06:31:37;;;;;;;;;;;;;;;21.74;51.78;101422.28;5057791;28;19924;-75
2023/05/22 06:34:02;;;;;;;;;;;;;;;21.73;51.79;101417.88;5039870;28;19920;-74
2023/05/22 06:36:27;;;;;;;;;;;;;;;21.73;51.70;101418.72;5051410;28;19935;-76
2023/05/22 06:38:53;;;;;;;;;;;;;;;21.74;51.65;101422.28;5027199;28;19924;-75
2023/05/22 06:41:18;;;;;;;;;;;;;;;21.74;51.72;101423.13;5048666;28;19913;-75
2023/05/22 06:43:44;;;;;;;;;;;;;;;21.74;51.49;101423.13;5033019;28;19913;-74
2023/05/22 06:46:09;;;;;;;;;;;;;;;21.74;51.46;101425.81;5034933;28;19917;-69
2023/05/22 06:48:35;;;;;;;;;;;;;;;21.75;51.63;101429.38;5054997;28;19912;-70
2023/05/22 06:51:00;;;;;;;;;;;;;;;21.75;51.77;101432.94;5034026;28;19924;-69
2023/05/22 06:53:25;;;;;;;;;;;;;;;21.75;51.66;101435.66;5034496;28;19920;-69
2023/05/22 06:55:50;;;;;;;;;;;;;;;21.76;51.59;101431.91;5048830;28;20389;-69
2023/05/22 06:58:16;;;;;;;;;;;;;;;21.75;51.83;101432.94;5037819;28;19917;-69
2023/05/22 07:00:41;;;;;;;;;;;;;;;21.76;51.99;101436.50;5045666;28;20011;-69
2023/05/22 07:03:06;;;;;;;;;;;;;;;21.75;52.01;101438.34;5046282;28;19917;-69
2023/05/22 07:05:31;;;;;;;;;;;;;;;21.75;51.64;101443.78;5056073;28;19932;-69
2023/05/22 07:07:56;;;;;;;;;;;;;;;21.76;52.06;101440.03;5033944;28;19999;-69
2023/05/22 07:10:23;;;;;;;;;;;;;;;21.76;51.94;101441.91;5054575;28;19923;-69
2023/05/22 07:12:48;;;;;;;;;;;;;;;21.75;51.95;101449.19;5048453;28;19913;-69
2023/05/22 07:15:14;;;;;;;;;;;;;;;21.75;51.81;101445.59;5050985;28;19929;-69
2023/05/22 07:17:40;;;;;;;;;;;;;;;21.75;51.92;101448.31;5052477;28;19921;-69
2023/05/22 07:20:06;;;;;;;;;;;;;;;21.75;51.93;101449.19;5055532;28;19913;-69
2023/05/22 07:22:31;;;;;;;;;;;;;;;21.75;51.90;101445.59;5055154;28;19921;-69
2023/05/22 07:24:56;;;;;;;;;;;;;;;21.75;51.54;101451.03;5055853;28;19916;-70
2023/05/22 07:27:22;;;;;;;;;;;;;;;21.76;51.76;101453.56;5054874;28;19917;-70
2023/05/22 07:29:47;;;;;;;;;;;;;;;21.75;51.49;101449.19;5055538;28;19916;-69
2023/05/22 07:32:12;;;;;;;;;;;;;;;21.76;51.74;101450.88;5042183;28;19913;-69
2023/05/22 07:34:37;;;;;;;;;;;;;;;21.77;51.61;101449.84;5046616;28;19949;-69
2023/05/22 07:37:05;;;;;;;;;;;;;;;21.77;51.67;101457.97;5054261;28;19959;-69
2023/05/22 07:39:30;;;;;;;;;;;;;;;21.76;51.68;101453.56;5051749;28;19913;-69
2023/05/22 07:41:55;;;;;;;;;;;;;;;21.78;51.52;101461.50;5052610;28;20352;-69
2023/05/22 07:44:21;;;;;;;;;;;;;;;21.78;51.73;101458.81;5034936;28;19939;-69
2023/05/22 07:46:46;;;;;;;;;;;;;;;21.77;51.80;101457.97;5052660;28;19959;-69
2023/05/22 07:49:11;;;;;;;;;;;;;;;21.77;51.76;101457.13;5050439;28;20365;-70
2023/05/22 07:51:36;;;;;;;;;;;;;;;21.77;51.64;101460.66;5052486;28;20352;-70
2023/05/22 07:54:01;;;;;;;;;;;;;;;21.78;51.58;101466.91;5055747;28;19932;-70
2023/05/22 07:56:27;;;;;;;;;;;;;;;21.77;51.86;101463.38;5052972;28;19912;-69
2023/05/22 07:58:52;;;;;;;;;;;;;;;21.78;51.96;101475.03;5058638;28;19921;-70
2023/05/22 08:01:17;;;;;;;;;;;;;;;21.79;51.87;101471.31;5032171;28;19923;-74
2023/05/22 08:03:43;;;;;;;;;;;;;;;21.79;51.92;101474.00;5055558;28;19916;-71
2023/05/22 08:06:08;;;;;;;;;;;;;;;21.79;51.98;101469.47;5053868;28;19913;-72
2023/05/22 08:08:33;;;;;;;;;;;;;;;21.81;52.74;101466.59;5050172;28;19923;-72
2023/05/22 08:10:58;;;;;;;;;;;;;;;21.82;52.84;101477.22;5052494;28;19920;-68
2023/05/22 08:13:23;;;;;;;;;;;;;;;21.83;52.53;101480.78;5046055;28;20329;-68
2023/05/22 08:15:49;;;;;;;;;;;;;;;21.83;52.69;101478.06;5031725;28;19928;-71
2023/05/22 08:18:14;;;;;;;;;;;;;;;21.84;52.73;101469.78;5052020;28;19923;-72
2023/05/22 08:20:39;;;;;;;;;;;;;;;21.84;52.40;101467.09;5056516;28;19912;-70
2023/05/22 08:23:04;;;;;;;;;;;;;;;21.85;52.71;101473.34;5050842;28;20051;-70
2023/05/22 08:25:29;;;;;;;;;;;;;;;21.85;53.08;101468.75;5043472;28;19917;-70
2023/05/22 08:27:55;;;;;;;;;;;;;;;21.88;53.09;101470.28;5040223;28;19917;-71
2023/05/22 08:30:20;;;;;;;;;;;;;;;21.89;52.86;101461.97;5052514;28;19948;-72
2023/05/22 08:32:45;;;;;;;;;;;;;;;21.90;52.60;101466.38;5054647;28;20452;-71
2023/05/22 08:35:10;;;;;;;;;;;;;;;21.90;52.68;101471.78;5052616;28;20032;-71
2023/05/22 08:37:36;;;;;;;;;;;;;;;21.92;52.72;101466.22;5052949;28;19921;-74
2023/05/22 08:40:01;;;;;;;;;;;;;;;21.93;53.26;101473.31;5043349;28;19944;-73
2023/05/22 08:42:26;;;;;;;;;;;;;;;21.93;55.02;101470.59;5035668;28;19924;-73
2023/05/22 08:44:54;;;;;;;;;;;;;;;21.95;54.95;101476.66;5018820;28;19947;-74
2023/05/22 08:47:19;;;;;;;;;;;;;;;21.95;55.43;101474.81;5034145;28;19920;-73
2023/05/22 08:49:44;;;;;;;;;;;;;;;21.95;55.95;101472.09;5034100;28;20715;-74
2023/05/22 08:52:10;;;;;;;;;;;;;;;;;;5043361;28;19913;-74
2023/05/22 08:54:36;;;;;;;;;;;;;;;21.98;55.79;101464.66;5054016;28;19923;-74
2023/05/22 08:57:01;;;;;;;;;;;;;;;21.98;55.61;101475.50;5038338;28;20464;-74
2023/05/22 08:59:26;;;;;;;;;;;;;;;21.99;55.82;101474.47;5037068;28;19916;-74
2023/05/22 09:01:52;;;;;;;;;;;;;;;21.99;55.73;101478.00;5042704;28;19937;-74
2023/05/22 09:04:17;;;;;;;;;;;;;;;22.00;55.67;101462.59;5035572;28;19924;-73
2023/05/22 09:06:45;;;;;;;;;;;;;;;22.00;55.58;101459.91;5052474;28;19952;-73
2023/05/22 09:09:11;;;;;;;;;;;;;;;21.99;55.86;101466.34;5051616;28;19920;-73
2023/05/22 09:11:36;;;;;;;;;;;;;;;21.99;55.23;101458.22;5051187;28;20015;-74
2023/05/22 09:14:02;;;;;;;;;;;;;;;;;;5053994;28;19924;-75
2023/05/22 09:16:27;;;;;;;;;;;;;;;;;;5059304;28;19932;-73
2023/05/22 09:18:52;;;;;;;;;;;;;;;21.98;55.17;101457.38;5054974;28;19991;-73
2023/05/22 09:21:18;;;;;;;;;;;;;;;21.99;55.49;101453.63;5055670;28;19983;-73
2023/05/22 09:23:48;;;;;;;;;;;;;;;21.99;55.37;101452.81;5042133;28;19940;-73
2023/05/22 09:26:13;;;;;;;;;;;;;;;21.99;55.36;101460.91;5055420;28;19928;-74
2023/05/22 09:28:38;;;;;;;;;;;;;;;22.00;55.39;101457.19;5050749;28;20349;-73
2023/05/22 09:31:05;;;;;;;;;;;;;;;22.00;55.55;101455.31;5044129;28;19916;-74
2023/05/22 09:33:31;;;;;;;;;;;;;;;22.00;55.42;101457.19;5050845;28;19917;-73
2023/05/22 09:35:56;;;;;;;;;;;;;;;22.00;55.24;101455.31;5053441;28;19913;-71
2023/05/22 09:38:22;;;;;;;;;;;;;;;22.01;55.39;101451.63;5030708;28;19920;-73
2023/05/22 09:40:51;;;;;;;;;;;;;;;22.01;55.60;101451.63;5035537;28;19920;-74
2023/05/22 09:43:16;;;;;;;;;;;;;;;22.04;55.82;101453.09;5043507;28;19956;-73
2023/05/22 09:45:41;;;;;;;;;;;;;;;22.04;56.42;101453.09;5050816;28;20321;-73
2023/05/22 09:48:07;;;;;;;;;;;;;;;22.06;56.73;101451.09;5034003;28;19928;-74
2023/05/22 09:50:32;;;;;;;;;;;;;;;22.07;56.88;101452.75;5049756;28;19939;-73
2023/05/22 09:53:00;;;;;;;;;;;;;;;22.07;56.88;101452.75;5043134;28;20464;-72
2023/05/22 09:55:25;;;;;;;;;;;;;;;22.08;57.02;101443.63;5052584;28;20436;-72
2023/05/22 09:57:51;;;;;;;;;;;;;;;22.08;56.96;101444.44;5031576;28;19913;-73
2023/05/22 10:00:17;;;;;;;;;;;;;;;22.09;57.06;101448.88;5053595;28;19913;-73
2023/05/22 10:02:46;;;;;;;;;;;;;;;22.11;56.92;101445.97;5045608;28;19958;-73
2023/05/22 10:05:12;;;;;;;;;;;;;;;22.12;57.12;101444.94;5049128;28;19956;-74
2023/05/22 10:07:42;;;;;;;;;;;;;;;22.13;57.08;101441.25;5048382;28;19913;-73
2023/05/22 10:10:08;;;;;;;;;;;;;;;22.13;57.18;101442.13;5043822;28;19921;-73
2023/05/22 10:12:35;;;;;;;;;;;;;;;22.15;57.49;101444.63;5045629;28;20512;-73
2023/05/22 10:15:01;;;;;;;;;;;;;;;22.15;57.27;101440.06;5034641;28;19921;-73
2023/05/22 10:17:26;;;;;;;;;;;;;;;22.16;57.01;101430.91;5042584;28;19920;-71
2023/05/22 10:19:52;;;;;;;;;;;;;;;22.18;56.87;101431.59;5042931;28;19923;-70
2023/05/22 10:22:20;;;;;;;;;;;;;;;22.20;56.69;101428.69;5053996;28;19940;-71
2023/05/22 10:24:45;;;;;;;;;;;;;;;22.20;56.78;101426.81;5034191;28;19951;-71
2023/05/22 10:27:11;;;;;;;;;;;;;;;22.22;56.64;101423.97;5034134;28;19913;-69
2023/05/22 10:29:37;;;;;;;;;;;;;;;22.23;57.18;101425.63;5030485;28;19913;-69
2023/05/22 10:32:13;;;;;;;;;;;;;;;22.25;57.42;101422.75;5052299;28;20003;-68
2023/05/22 10:34:59;;;;;;;;;;;;;;;22.27;57.45;101439.66;5035760;28;20469;-69
2023/05/22 10:37:42;;;;;;;;;;;;;;;22.28;57.20;101414.25;5049727;28;20457;-68
2023/05/22 10:40:07;;;;;;;;;;;;;;;22.30;57.23;101412.19;5055849;28;19945;-73
2023/05/22 10:42:33;;;;;;;;;;;;;;;22.32;57.36;101418.31;5045727;28;20378;-72
2023/05/22 10:44:59;;;;;;;;;;;;;;;22.33;57.18;101412.69;5035388;28;19924;-72
2023/05/22 10:47:25;;;;;;;;;;;;;;;22.35;57.02;101409.81;5032893;28;19917;-72
2023/05/22 10:49:50;;;;;;;;;;;;;;;22.35;57.16;101413.38;5032090;28;19920;-71
2023/05/22 10:52:17;;;;;;;;;;;;;;;22.36;57.00;101409.63;5035253;28;19936;-72
2023/05/22 10:54:43;;;;;;;;;;;;;;;22.39;56.84;101413.88;5055844;28;19994;-71
2023/05/22 10:57:15;;;;;;;;;;;;;;;22.40;56.92;101412.84;5054426;28;20363;-72
2023/05/22 10:59:40;;;;;;;;;;;;;;;22.41;56.83;101415.34;5054997;28;19913;-72
2023/05/22 11:02:12;;;;;;;;;;;;;;;22.43;56.67;101416.03;5025800;28;19924;-72
2023/05/22 11:04:38;;;;;;;;;;;;;;;22.44;56.51;101417.72;5037071;28;19917;-71
2023/05/22 11:07:04;;;;;;;;;;;;;;;22.46;56.16;101428.34;5052930;28;19952;-71
2023/05/22 11:09:30;;;;;;;;;;;;;;;22.48;56.24;101422.78;5057928;28;20030;-71
2023/05/22 11:12:15;;;;;;;;;;;;;;;22.49;56.08;101421.75;5047359;28;20368;-71
2023/05/22 11:14:40;;;;;;;;;;;;;;;22.51;55.80;101419.69;5046421;28;20552;-72
2023/05/22 11:17:05;;;;;;;;;;;;;;;22.53;55.89;101413.06;5047491;28;19940;-72
2023/05/22 11:19:30;;;;;;;;;;;;;;;22.55;55.83;101416.44;5055111;28;19913;-69
2023/05/22 11:21:59;;;;;;;;;;;;;;;22.57;55.99;101413.56;5026128;28;20385;-68
2023/05/22 11:24:24;;;;;;;;;;;;;;;22.59;55.61;101414.22;5045108;28;20035;-69
2023/05/22 11:26:59;;;;;;;;;;;;;;;22.57;56.29;101411.69;5052481;28;19925;-69
2023/05/22 11:29:24;;;;;;;;;;;;;;;22.60;56.37;101399.63;5037382;28;19921;-69
2023/05/22 11:31:49;;;;;;;;;;;;;;;22.61;56.13;101407.59;5046459;28;19927;-69
2023/05/22 11:34:15;;;;;;;;;;;;;;;22.64;56.50;101400.94;5049840;28;19921;-70
2023/05/22 11:36:40;;;;;;;;;;;;;;;22.64;56.63;101400.94;5025159;28;19913;-70
2023/05/22 11:39:05;;;;;;;;;;;;;;;22.65;56.21;101399.94;5051438;28;20000;-69
2023/05/22 11:41:33;;;;;;;;;;;;;;;22.67;56.35;101397.88;5045570;28;19972;-70
2023/05/22 11:43:59;;;;;;;;;;;;;;;22.69;56.11;101393.97;5045685;28;19913;-73
2023/05/22 11:46:25;;;;;;;;;;;;;;;22.73;55.89;101399.88;5048245;28;19921;-72
2023/05/22 11:48:50;;;;;;;;;;;;;;;22.74;56.33;101390.72;5039554;28;19913;-72
2023/05/22 11:51:18;;;;;;;;;;;;;;;22.77;56.29;101393.06;5052752;28;19957;-72
2023/05/22 11:53:43;;;;;;;;;;;;;;;22.78;56.01;101389.34;5044684;28;20000;-71
2023/05/22 11:56:08;;;;;;;;;;;;;;;22.81;55.85;101382.69;5040904;28;19940;-71
2023/05/22 11:58:33;;;;;;;;;;;;;;;22.82;55.82;101382.53;5043021;28;19948;-71
2023/05/22 12:01:02;;;;;;;;;;;;;;;22.83;55.76;101380.66;5052635;28;20302;-71
2023/05/22 12:03:28;;;;;;;;;;;;;;;22.85;55.56;101384.00;5022329;28;19917;-71
2023/05/22 12:05:53;;;;;;;;;;;;;;;22.87;55.78;101379.25;5034686;28;19917;-71
2023/05/22 12:08:18;;;;;;;;;;;;;;;22.88;55.35;101376.34;5033687;28;19914;-71
2023/05/22 12:10:48;;;;;;;;;;;;;;;22.90;55.22;101377.06;5039912;28;19913;-71
2023/05/22 12:13:13;;;;;;;;;;;;;;;22.91;55.49;101370.59;5044743;28;19921;-71
2023/05/22 12:15:38;;;;;;;;;;;;;;;22.93;55.36;101368.53;5061702;28;19932;-71
2023/05/22 12:18:06;;;;;;;;;;;;;;;22.97;55.35;101370.88;5027671;28;19971;-71
2023/05/22 12:20:32;;;;;;;;;;;;;;;22.99;55.19;101368.84;5051258;28;19913;-72
2023/05/22 12:22:58;;;;;;;;;;;;;;;23.00;55.19;101370.53;5056018;28;19964;-71
2023/05/22 12:25:23;;;;;;;;;;;;;;;23.01;55.07;101378.47;5034536;28;19913;-72
2023/05/22 12:27:49;;;;;;;;;;;;;;;23.02;55.07;101374.72;5033091;28;19913;-71
2023/05/22 12:30:15;;;;;;;;;;;;;;;23.04;54.88;101377.25;5051049;28;19920;-72
2023/05/22 12:32:45;;;;;;;;;;;;;;;23.06;55.10;101381.47;5053053;28;19948;-71